Leyendecker II PSRC Data

Date Time Air Temperature Relative Humidity Wind Speed Wind Dir. Rain Solar Radiation Soil Temperature
2m 2m 3m 3m 10cm
US/Mountain F % MPH deg in MJ/m^2 F
max min avg max min avg max avg avg max min avg
2019-12-14 01:00:00 38.8 36.3 37.7 88.7 82.8 85.1 3.0 0.8 304.5 0.00 0.0000000 49.4 49.2 49.3
2019-12-14 02:00:00 36.3 34.9 35.8 94.4 88.0 91.6 2.4 0.7 123.8 0.00 0.0000000 49.2 48.9 49.0
2019-12-14 03:00:00 36.1 34.8 35.2 94.5 89.1 92.3 3.0 0.6 157.0 0.00 0.0000000 48.9 48.7 48.8
2019-12-14 04:00:00 36.2 33.8 34.8 95.2 88.2 92.9 4.4 1.6 171.4 0.00 0.0000000 48.7 48.5 48.6
2019-12-14 05:00:00 36.7 33.5 34.7 96.0 89.1 93.2 4.6 1.3 179.2 0.00 0.0000000 48.5 48.3 48.4
2019-12-14 06:00:00 33.6 32.4 32.7 97.1 93.3 95.9 2.6 0.5 216.9 0.00 0.0000000 48.3 48.1 48.2
2019-12-14 07:00:00 33.2 32.0 32.5 98.0 95.7 96.8 3.1 1.1 156.3 0.00 0.0016955 48.1 47.9 48.0
2019-12-14 08:00:00 38.5 32.0 34.4 96.7 88.0 93.7 6.2 1.6 218.8 0.00 0.3579279 47.9 47.7 47.8
2019-12-14 09:00:00 50.3 38.3 45.9 91.5 59.2 72.6 4.9 2.9 161.2 0.00 0.9416022 47.7 47.6 47.7
2019-12-14 10:00:00 56.5 50.3 53.6 65.3 46.1 54.9 5.5 3.1 135.7 0.00 1.5210360 47.8 47.6 47.7
2019-12-14 11:00:00 61.7 56.8 59.5 51.2 36.8 42.9 7.4 3.8 149.8 0.00 1.9727080 48.2 47.8 48.0
2019-12-14 12:00:00 65.2 60.9 63.0 41.5 30.6 35.8 15.3 4.8 228.2 0.00 2.2254660 48.8 48.2 48.5
2019-12-14 13:00:00 67.9 64.7 66.4 33.4 26.2 29.6 17.8 7.9 248.8 0.00 2.2494040 49.5 48.8 49.2
2019-12-14 14:00:00 68.9 67.5 68.1 29.8 24.7 26.5 22.4 11.3 271.7 0.00 2.0448930 50.1 49.5 49.8
2019-12-14 15:00:00 70.0 68.4 69.2 28.2 23.8 25.5 18.9 9.0 269.8 0.00 1.7926820 50.5 50.1 50.3
2019-12-14 16:00:00 69.4 67.8 68.7 28.5 23.8 25.9 15.6 8.6 285.7 0.00 1.1338350 50.9 50.5 50.7
2019-12-14 17:00:00 67.9 63.2 65.2 36.3 26.2 32.2 13.9 6.4 300.9 0.00 0.2742639 51.0 50.8 51.0
2019-12-14 18:00:00 63.8 57.6 60.8 46.2 33.6 38.9 6.7 2.4 311.1 0.00 0.0005710 51.0 51.0 51.0
2019-12-14 19:00:00 61.9 54.8 58.0 51.5 34.6 43.1 11.9 4.0 302.6 0.00 0.0000393 51.0 50.8 50.9
2019-12-14 20:00:00 57.8 49.0 53.5 63.7 42.7 51.8 5.3 3.0 309.3 0.00 0.0000000 50.8 50.6 50.7
2019-12-14 21:00:00 49.3 46.1 48.1 72.2 61.0 66.1 4.0 1.8 171.5 0.00 0.0000000 50.6 50.4 50.5
2019-12-14 22:00:00 46.9 44.2 45.4 77.9 67.7 72.9 5.1 1.9 117.2 0.00 0.0000000 50.4 50.2 50.3
2019-12-14 23:00:00 46.2 41.0 42.4 82.7 71.0 79.4 4.2 1.4 230.1 0.00 0.0000000 50.2 49.9 50.0
2019-12-15 00:00:00 42.4 39.8 40.8 87.9 79.2 84.2 3.7 1.2 102.0 0.00 0.0000000 49.9 49.7 49.8

Data is courtesy of the NM Climate Center. DO NOT USE IN LEGAL PROCEEDINGS.